createdAt,value
2018-01-27T00:02:38.232Z,16.87
2018-01-27T00:07:41.810Z,20.00
2018-01-27T00:12:45.309Z,20.43
2018-01-27T00:17:49.214Z,23.58
2018-01-27T00:22:53.647Z,20.93
2018-01-27T00:27:57.876Z,20.67
2018-01-27T00:33:02.473Z,19.23
2018-01-27T00:38:07.071Z,22.80
2018-01-27T00:43:10.185Z,19.75
2018-01-27T00:48:13.674Z,18.37
2018-01-27T00:53:17.152Z,19.67
2018-01-27T00:58:21.648Z,18.07
2018-01-27T01:03:25.145Z,20.83
2018-01-27T01:08:29.585Z,19.23
2018-01-27T01:13:32.693Z,20.27
2018-01-27T01:18:36.553Z,21.13
2018-01-27T01:23:40.053Z,19.87
2018-01-27T01:28:43.209Z,18.93
2018-01-27T01:33:47.445Z,19.70
2018-01-27T01:38:50.545Z,24.37
2018-01-27T01:44:00.547Z,18.30
2018-01-27T01:49:22.444Z,21.63
2018-01-27T01:54:26.328Z,21.67
2018-01-27T01:59:30.807Z,17.20
2018-01-27T02:04:35.256Z,23.30
2018-01-27T02:09:39.852Z,19.73
2018-01-27T02:14:44.465Z,32.93
2018-01-27T02:19:48.329Z,22.13
2018-01-27T02:24:51.429Z,23.07
2018-01-27T02:29:54.889Z,22.63
2018-01-27T02:34:58.440Z,27.67
2018-01-27T02:40:02.694Z,21.03
2018-01-27T02:45:06.573Z,22.83
2018-01-27T02:50:11.175Z,23.80
2018-01-27T02:55:14.664Z,20.83
2018-01-27T03:00:18.148Z,18.33
2018-01-27T03:05:22.394Z,17.47
2018-01-27T03:10:26.656Z,14.87
2018-01-27T03:15:29.892Z,14.97
2018-01-27T03:20:34.333Z,16.40
2018-01-27T03:25:38.588Z,17.83
2018-01-27T03:30:42.448Z,18.40
2018-01-27T03:35:45.616Z,20.80
2018-01-27T03:40:49.841Z,21.03
2018-01-27T03:45:53.708Z,17.30
2018-01-27T03:50:57.570Z,17.80
2018-01-27T03:56:02.008Z,16.27
2018-01-27T04:01:06.480Z,17.87
2018-01-27T04:06:10.353Z,19.87
2018-01-27T04:11:13.920Z,19.83
2018-01-27T04:16:17.802Z,19.60
2018-01-27T04:21:20.952Z,18.80
2018-01-27T04:26:24.810Z,17.93
2018-01-27T04:31:29.246Z,24.43
2018-01-27T04:36:33.701Z,18.52
2018-01-27T04:41:38.190Z,18.37
2018-01-27T04:46:42.051Z,19.33
2018-01-27T04:51:46.667Z,20.63
2018-01-27T04:56:51.280Z,23.60
2018-01-27T05:01:54.359Z,23.40
2018-01-27T05:06:58.235Z,19.23
2018-01-27T05:12:02.700Z,20.47
2018-01-27T05:17:07.299Z,22.03
2018-01-27T05:22:11.731Z,21.00
2018-01-27T05:27:14.811Z,21.17
2018-01-27T05:32:19.003Z,21.43
2018-01-27T05:37:22.517Z,18.80
2018-01-27T05:42:27.028Z,19.57
2018-01-27T05:47:31.156Z,20.47
2018-01-27T05:52:34.250Z,19.97
2018-01-27T05:57:38.715Z,23.93
2018-01-27T06:02:43.151Z,20.80
2018-01-27T06:07:47.635Z,20.43
2018-01-27T06:12:52.142Z,20.43
2018-01-27T06:17:57.535Z,23.57
2018-01-27T06:23:01.958Z,21.87
2018-01-27T06:28:06.415Z,23.50
2018-01-27T06:33:10.639Z,23.53
2018-01-27T06:38:14.496Z,25.13
2018-01-27T06:43:18.346Z,25.40
2018-01-27T06:48:22.632Z,27.10
2018-01-27T06:53:27.070Z,26.60
2018-01-27T06:58:30.572Z,25.70
2018-01-27T07:03:33.678Z,25.57
2018-01-27T07:08:38.123Z,26.53
2018-01-27T07:13:42.568Z,25.53
2018-01-27T07:18:46.056Z,29.10
2018-01-27T07:23:50.576Z,27.17
2018-01-27T07:28:54.472Z,26.63
2018-01-27T07:33:58.695Z,23.47
2018-01-27T07:39:02.669Z,23.53
2018-01-27T07:44:07.121Z,25.67
2018-01-27T07:49:11.559Z,22.30
2018-01-27T07:54:15.796Z,26.17
2018-01-27T07:59:19.657Z,21.80
2018-01-27T08:04:23.167Z,26.37
2018-01-27T08:09:26.255Z,29.00
2018-01-27T08:14:30.678Z,29.23
2018-01-27T08:19:35.039Z,29.17
2018-01-27T08:24:39.487Z,34.87
2018-01-27T08:29:44.172Z,27.13
2018-01-27T08:34:48.032Z,30.83
2018-01-27T08:39:52.491Z,29.67
2018-01-27T08:44:55.981Z,32.33
2018-01-27T08:49:59.543Z,30.77
2018-01-27T08:55:04.157Z,31.00
2018-01-27T09:00:08.024Z,26.17
2018-01-27T09:05:12.464Z,27.77
2018-01-27T09:10:16.325Z,27.07
2018-01-27T09:15:20.784Z,31.17
2018-01-27T09:20:25.395Z,33.97
2018-01-27T09:25:29.256Z,29.23
2018-01-27T09:30:33.494Z,35.70
2018-01-27T09:35:37.939Z,31.02
2018-01-27T09:40:42.379Z,32.47
2018-01-27T09:45:45.475Z,35.77
2018-01-27T09:50:49.329Z,36.28
2018-01-27T09:55:53.784Z,36.57
2018-01-27T10:00:58.283Z,31.03
2018-01-27T10:06:02.736Z,30.80
2018-01-27T10:11:05.823Z,26.97
2018-01-27T10:16:10.263Z,31.63
2018-01-27T10:21:14.495Z,32.37
2018-01-27T10:26:19.554Z,31.48
2018-01-27T10:31:23.991Z,35.47
2018-01-27T10:36:27.480Z,38.70
2018-01-27T10:41:30.584Z,34.28
2018-01-27T10:46:35.023Z,37.50
2018-01-27T10:51:39.472Z,33.57
2018-01-27T10:56:43.915Z,33.60
2018-01-27T11:01:47.408Z,29.27
2018-01-27T11:06:50.896Z,30.67
2018-01-27T11:11:54.030Z,26.77
2018-01-27T11:16:58.471Z,23.47
2018-01-27T11:22:01.568Z,23.08
2018-01-27T11:27:04.768Z,26.17
2018-01-27T11:32:09.211Z,33.67
2018-01-27T11:37:13.088Z,35.77
2018-01-27T11:42:17.660Z,40.47
2018-01-27T11:47:21.901Z,33.67
2018-01-27T11:52:26.359Z,40.43
2018-01-27T11:57:30.794Z,37.00
2018-01-27T12:02:35.239Z,39.97
2018-01-27T12:07:39.488Z,37.53
2018-01-27T12:12:43.724Z,37.70
2018-01-27T12:17:47.604Z,36.50
2018-01-27T12:22:52.052Z,37.60
2018-01-27T12:27:57.640Z,35.53
2018-01-27T12:33:02.083Z,35.73
2018-01-27T12:38:06.320Z,32.30
2018-01-27T12:43:10.905Z,30.27
2018-01-27T12:48:15.351Z,25.63
2018-01-27T12:53:19.796Z,22.90
2018-01-27T12:58:24.237Z,21.77
2018-01-27T13:03:28.683Z,23.60
2018-01-27T13:08:33.132Z,23.53
2018-01-27T13:13:37.598Z,19.07
2018-01-27T13:18:41.473Z,22.03
2018-01-27T13:23:45.916Z,27.50
2018-01-27T13:28:50.365Z,21.77
2018-01-27T13:33:54.804Z,21.57
2018-01-27T13:38:58.741Z,21.40
2018-01-27T13:44:03.183Z,21.70
2018-01-27T13:49:07.641Z,20.93
2018-01-27T13:54:11.500Z,23.00
2018-01-27T13:59:15.373Z,22.00
2018-01-27T14:04:19.833Z,22.03
2018-01-27T14:09:23.357Z,21.73
2018-01-27T14:14:27.864Z,21.13
2018-01-27T14:19:32.331Z,24.00
2018-01-27T14:24:36.926Z,20.50
2018-01-27T14:29:41.164Z,20.80
2018-01-27T14:34:45.606Z,20.83
2018-01-27T14:39:50.043Z,20.93
2018-01-27T14:44:53.126Z,21.30
2018-01-27T14:49:57.571Z,21.07
2018-01-27T14:55:01.051Z,21.50
2018-01-27T15:00:05.486Z,20.40
2018-01-27T15:05:08.614Z,19.63
2018-01-27T15:10:13.197Z,20.87
2018-01-27T15:15:17.646Z,24.60
2018-01-27T15:20:22.129Z,22.90
2018-01-27T15:25:26.120Z,18.73
2018-01-27T15:30:30.561Z,18.97
2018-01-27T15:35:35.149Z,20.53
2018-01-27T15:40:41.648Z,18.03
2018-01-27T15:45:46.235Z,19.97
2018-01-27T15:50:50.675Z,19.40
2018-01-27T15:55:55.759Z,15.95
2018-01-27T16:01:00.209Z,17.00
2018-01-27T16:06:04.744Z,17.00
2018-01-27T16:11:09.223Z,14.45
2018-01-27T16:16:12.880Z,12.97
2018-01-27T16:21:17.133Z,11.37
2018-01-27T16:26:21.724Z,14.80
2018-01-27T16:31:26.175Z,13.27
2018-01-27T16:36:30.652Z,13.60
2018-01-27T16:41:35.919Z,12.83
2018-01-27T16:46:40.381Z,13.10
2018-01-27T16:51:43.864Z,11.67
2018-01-27T16:56:48.459Z,13.03
2018-01-27T17:01:51.965Z,12.80
2018-01-27T17:06:55.845Z,11.07
2018-01-27T17:12:00.351Z,14.97
2018-01-27T17:17:04.231Z,15.20
2018-01-27T17:22:07.723Z,13.03
2018-01-27T17:27:11.597Z,13.30
2018-01-27T17:32:15.479Z,12.77
2018-01-27T17:37:20.703Z,14.30
2018-01-27T17:42:25.126Z,13.57
2018-01-27T17:47:28.980Z,14.13
2018-01-27T17:52:32.071Z,17.23
2018-01-27T17:57:36.890Z,15.32
2018-01-27T18:02:41.335Z,15.73
2018-01-27T18:07:45.192Z,13.03
2018-01-27T18:12:49.647Z,14.27
2018-01-27T18:17:53.535Z,15.73
2018-01-27T18:22:58.127Z,14.85
2018-01-27T18:28:01.978Z,17.60
2018-01-27T18:33:06.403Z,13.33
2018-01-27T18:38:10.259Z,24.17
2018-01-27T18:43:13.346Z,13.87
2018-01-27T18:48:17.797Z,14.60
2018-01-27T18:53:22.084Z,13.30
2018-01-27T18:58:26.541Z,12.07
2018-01-27T19:03:30.399Z,13.40
2018-01-27T19:08:34.255Z,12.43
2018-01-27T19:13:38.713Z,19.60
2018-01-27T19:18:42.572Z,12.52
2018-01-27T19:23:46.434Z,12.17
2018-01-27T19:28:49.527Z,14.80
2018-01-27T19:39:21.383Z,11.63
2018-01-27T19:44:26.721Z,12.43
2018-01-27T19:49:30.563Z,11.67
2018-01-27T19:54:35.007Z,11.87
2018-01-27T19:59:39.607Z,11.10
2018-01-27T20:04:42.697Z,12.70
2018-01-27T20:09:45.755Z,11.33
2018-01-27T20:14:50.788Z,9.87
2018-01-27T20:19:54.998Z,9.83
2018-01-27T20:24:59.796Z,9.45
2018-01-27T20:30:03.665Z,11.53
2018-01-27T20:35:07.902Z,10.67
2018-01-27T20:40:12.599Z,9.57
2018-01-27T20:45:16.071Z,10.30
2018-01-27T20:50:19.963Z,11.27
2018-01-27T20:55:24.410Z,10.93
2018-01-27T21:00:28.313Z,10.27
2018-01-27T21:05:32.888Z,11.43
2018-01-27T21:10:37.146Z,12.13
2018-01-27T21:15:40.311Z,13.03
2018-01-27T21:20:44.754Z,14.23
2018-01-27T21:25:49.199Z,11.33
2018-01-27T21:30:52.735Z,13.13
2018-01-27T21:35:57.175Z,12.57
2018-01-27T21:41:01.789Z,11.53
2018-01-27T21:46:04.924Z,11.10
2018-01-27T21:51:09.366Z,11.87
2018-01-27T21:56:12.458Z,12.03
2018-01-27T22:01:15.934Z,11.30
2018-01-27T22:06:20.787Z,10.87
2018-01-27T22:11:25.431Z,9.17
2018-01-27T22:16:28.931Z,10.30
2018-01-27T22:21:32.764Z,7.67
2018-01-27T22:26:36.304Z,8.93
2018-01-27T22:31:42.498Z,9.53
2018-01-27T22:36:45.974Z,8.13
2018-01-27T22:41:50.395Z,8.80
2018-01-27T22:46:54.632Z,10.20
2018-01-27T22:51:59.225Z,10.70
2018-01-27T22:57:03.472Z,8.85
2018-01-27T23:02:06.939Z,8.87
2018-01-27T23:07:11.358Z,7.93
2018-01-27T23:12:14.488Z,7.93
2018-01-27T23:17:19.867Z,8.20
2018-01-27T23:22:24.452Z,8.53
2018-01-27T23:27:28.673Z,8.23
2018-01-27T23:32:33.230Z,7.90
2018-01-27T23:37:36.678Z,9.70
2018-01-27T23:42:40.916Z,10.00
2018-01-27T23:47:44.840Z,9.50
2018-01-27T23:52:49.044Z,8.73
2018-01-27T23:57:53.119Z,8.53
